sensor_id;sensor_type;location;lat;lon;timestamp;P1;P2;P0
77516;PMS7003;66628;53.946;27.634;2023-02-23T00:00:02;22.166666;20.366667;13.800000
77516;PMS7003;66628;53.946;27.634;2023-02-23T00:01:11;22.266666;21.866667;14.766666
77516;PMS7003;66628;53.946;27.634;2023-02-23T00:02:02;20.966667;18.566668;12.350000
77516;PMS7003;66628;53.946;27.634;2023-02-23T00:03:02;21.000000;20.233334;12.750000
77516;PMS7003;66628;53.946;27.634;2023-02-23T00:04:02;20.383333;19.483334;12.616667
77516;PMS7003;66628;53.946;27.634;2023-02-23T00:05:02;20.533333;18.066668;12.700000
77516;PMS7003;66628;53.946;27.634;2023-02-23T00:06:02;19.966667;18.833334;12.066667
77516;PMS7003;66628;53.946;27.634;2023-02-23T00:07:03;18.950001;17.616667;12.033334
77516;PMS7003;66628;53.946;27.634;2023-02-23T00:08:02;18.816668;17.833334;11.616667
77516;PMS7003;66628;53.946;27.634;2023-02-23T00:09:03;21.933332;20.450001;12.666667
77516;PMS7003;66628;53.946;27.634;2023-02-23T00:10:02;20.233334;19.466667;12.000000
77516;PMS7003;66628;53.946;27.634;2023-02-23T00:11:08;20.883333;20.200001;12.966666
77516;PMS7003;66628;53.946;27.634;2023-02-23T00:12:04;20.900000;18.533333;12.316667
77516;PMS7003;66628;53.946;27.634;2023-02-23T00:13:02;20.683332;17.766666;12.000000
77516;PMS7003;66628;53.946;27.634;2023-02-23T00:14:02;20.033333;18.233334;12.350000
77516;PMS7003;66628;53.946;27.634;2023-02-23T00:15:02;19.450001;18.183332;11.400000
77516;PMS7003;66628;53.946;27.634;2023-02-23T00:16:06;20.016666;17.549999;11.133333
77516;PMS7003;66628;53.946;27.634;2023-02-23T00:17:03;20.583334;17.766666;12.350000
77516;PMS7003;66628;53.946;27.634;2023-02-23T00:18:02;20.383333;19.850000;13.066667
77516;PMS7003;66628;53.946;27.634;2023-02-23T00:19:02;20.883333;19.833334;12.483334
77516;PMS7003;66628;53.946;27.634;2023-02-23T00:20:04;20.350000;19.016666;12.066667
77516;PMS7003;66628;53.946;27.634;2023-02-23T00:21:02;17.799999;17.183332;11.966666
77516;PMS7003;66628;53.946;27.634;2023-02-23T00:22:02;18.549999;17.500000;11.850000
77516;PMS7003;66628;53.946;27.634;2023-02-23T00:23:02;19.883333;18.549999;11.833333
77516;PMS7003;66628;53.946;27.634;2023-02-23T00:24:07;19.133333;17.299999;11.100000
77516;PMS7003;66628;53.946;27.634;2023-02-23T00:25:02;17.866667;17.100000;10.933333
77516;PMS7003;66628;53.946;27.634;2023-02-23T00:26:03;18.016666;17.700001;11.266666
77516;PMS7003;66628;53.946;27.634;2023-02-23T00:27:02;18.750000;17.333334;11.216666
77516;PMS7003;66628;53.946;27.634;2023-02-23T00:28:02;21.333334;19.083334;12.450000
77516;PMS7003;66628;53.946;27.634;2023-02-23T00:29:09;19.066668;17.983334;11.416667
77516;PMS7003;66628;53.946;27.634;2023-02-23T00:30:03;18.516666;17.116667;11.750000
77516;PMS7003;66628;53.946;27.634;2023-02-23T00:31:02;18.416666;17.483334;11.750000
77516;PMS7003;66628;53.946;27.634;2023-02-23T00:32:02;19.500000;18.466667;11.466666
77516;PMS7003;66628;53.946;27.634;2023-02-23T00:33:02;17.549999;16.683332;11.466666
77516;PMS7003;66628;53.946;27.634;2023-02-23T00:34:02;20.183332;18.166666;11.316667
77516;PMS7003;66628;53.946;27.634;2023-02-23T00:35:02;18.150000;17.250000;11.383333
77516;PMS7003;66628;53.946;27.634;2023-02-23T00:36:08;19.450001;18.066668;11.283334
77516;PMS7003;66628;53.946;27.634;2023-02-23T00:37:03;15.700000;15.283334;10.666667
77516;PMS7003;66628;53.946;27.634;2023-02-23T00:38:02;18.866667;17.500000;11.050000
77516;PMS7003;66628;53.946;27.634;2023-02-23T00:39:07;17.516666;16.500000;10.666667
77516;PMS7003;66628;53.946;27.634;2023-02-23T00:40:02;19.266666;17.466667;11.133333
77516;PMS7003;66628;53.946;27.634;2023-02-23T00:41:07;19.283333;17.266666;11.416667
77516;PMS7003;66628;53.946;27.634;2023-02-23T00:42:02;16.950001;16.483334;11.200000
77516;PMS7003;66628;53.946;27.634;2023-02-23T00:43:02;17.366667;16.700001;11.750000
77516;PMS7003;66628;53.946;27.634;2023-02-23T00:44:02;16.333334;15.266666;10.900000
77516;PMS7003;66628;53.946;27.634;2023-02-23T00:45:02;17.150000;16.916666;11.583333
77516;PMS7003;66628;53.946;27.634;2023-02-23T00:46:02;19.766666;17.433332;11.733334
77516;PMS7003;66628;53.946;27.634;2023-02-23T00:47:02;18.049999;17.350000;10.783334
77516;PMS7003;66628;53.946;27.634;2023-02-23T00:48:02;16.666666;15.450000;10.150000
77516;PMS7003;66628;53.946;27.634;2023-02-23T00:49:02;16.750000;15.650000;10.083333
77516;PMS7003;66628;53.946;27.634;2023-02-23T00:50:02;18.633333;16.066668;10.766666
77516;PMS7003;66628;53.946;27.634;2023-02-23T00:51:04;16.233334;15.300000;10.266666
77516;PMS7003;66628;53.946;27.634;2023-02-23T00:52:02;16.233334;14.500000;9.883333
77516;PMS7003;66628;53.946;27.634;2023-02-23T00:53:02;17.533333;16.250000;10.066667
77516;PMS7003;66628;53.946;27.634;2023-02-23T00:54:02;15.550000;15.016666;10.450000
77516;PMS7003;66628;53.946;27.634;2023-02-23T00:55:02;17.316668;16.350000;11.783334
77516;PMS7003;66628;53.946;27.634;2023-02-23T00:56:06;17.866667;16.383333;10.800000
77516;PMS7003;66628;53.946;27.634;2023-02-23T00:57:02;19.866667;17.366667;10.783334
77516;PMS7003;66628;53.946;27.634;2023-02-23T00:58:02;16.666666;16.216667;11.883333
77516;PMS7003;66628;53.946;27.634;2023-02-23T00:59:02;16.783333;16.183332;10.933333
77516;PMS7003;66628;53.946;27.634;2023-02-23T01:00:04;18.350000;16.283333;10.683333
77516;PMS7003;66628;53.946;27.634;2023-02-23T01:01:08;17.433332;16.283333;9.950000
77516;PMS7003;66628;53.946;27.634;2023-02-23T01:02:02;18.233334;15.883333;10.883333
77516;PMS7003;66628;53.946;27.634;2023-02-23T01:03:02;15.533334;14.166667;9.933333
77516;PMS7003;66628;53.946;27.634;2023-02-23T01:04:02;17.650000;15.950000;9.983334
77516;PMS7003;66628;53.946;27.634;2023-02-23T01:05:02;15.850000;14.966666;10.066667
77516;PMS7003;66628;53.946;27.634;2023-02-23T01:06:05;16.983334;16.433332;10.483334
77516;PMS7003;66628;53.946;27.634;2023-02-23T01:07:02;15.366667;14.666667;10.516666
77516;PMS7003;66628;53.946;27.634;2023-02-23T01:08:02;13.883333;13.316667;9.583333
77516;PMS7003;66628;53.946;27.634;2023-02-23T01:09:10;17.133333;16.250000;10.633333
77516;PMS7003;66628;53.946;27.634;2023-02-23T01:10:03;15.850000;15.550000;10.050000
77516;PMS7003;66628;53.946;27.634;2023-02-23T01:11:07;17.366667;16.633333;10.100000
77516;PMS7003;66628;53.946;27.634;2023-02-23T01:12:02;15.966666;15.300000;10.366667
77516;PMS7003;66628;53.946;27.634;2023-02-23T01:13:02;16.700001;15.300000;9.400000
77516;PMS7003;66628;53.946;27.634;2023-02-23T01:14:02;17.416666;16.483334;10.900000
77516;PMS7003;66628;53.946;27.634;2023-02-23T01:15:02;14.566667;14.350000;10.066667
77516;PMS7003;66628;53.946;27.634;2023-02-23T01:16:06;16.633333;16.100000;10.800000
77516;PMS7003;66628;53.946;27.634;2023-02-23T01:17:02;15.950000;15.116667;10.516666
77516;PMS7003;66628;53.946;27.634;2023-02-23T01:18:02;17.566668;16.316668;10.466666
77516;PMS7003;66628;53.946;27.634;2023-02-23T01:19:03;15.500000;14.766666;10.566667
77516;PMS7003;66628;53.946;27.634;2023-02-23T01:20:02;16.416666;16.166666;10.816667
77516;PMS7003;66628;53.946;27.634;2023-02-23T01:21:03;16.100000;15.233334;10.083333
77516;PMS7003;66628;53.946;27.634;2023-02-23T01:22:05;15.633333;14.666667;10.333333
77516;PMS7003;66628;53.946;27.634;2023-02-23T01:23:03;15.250000;14.650000;9.650000
77516;PMS7003;66628;53.946;27.634;2023-02-23T01:24:02;15.316667;14.216666;9.833333
77516;PMS7003;66628;53.946;27.634;2023-02-23T01:25:02;15.633333;14.500000;9.483334
77516;PMS7003;66628;53.946;27.634;2023-02-23T01:26:02;16.799999;15.633333;10.700000
77516;PMS7003;66628;53.946;27.634;2023-02-23T01:27:02;14.716666;14.316667;10.033334
77516;PMS7003;66628;53.946;27.634;2023-02-23T01:28:02;18.000000;17.233334;11.366667
77516;PMS7003;66628;53.946;27.634;2023-02-23T01:29:06;15.950000;15.183333;10.283334
77516;PMS7003;66628;53.946;27.634;2023-02-23T01:30:02;15.016666;13.700000;9.650000
77516;PMS7003;66628;53.946;27.634;2023-02-23T01:31:07;16.133333;15.183333;10.316667
77516;PMS7003;66628;53.946;27.634;2023-02-23T01:32:02;15.516666;15.216666;9.583333
77516;PMS7003;66628;53.946;27.634;2023-02-23T01:33:02;16.450001;15.033334;10.300000
77516;PMS7003;66628;53.946;27.634;2023-02-23T01:34:02;17.716667;17.083334;10.350000
77516;PMS7003;66628;53.946;27.634;2023-02-23T01:35:08;17.600000;16.750000;10.500000
77516;PMS7003;66628;53.946;27.634;2023-02-23T01:36:02;16.866667;15.600000;9.500000
77516;PMS7003;66628;53.946;27.634;2023-02-23T01:37:02;17.116667;15.950000;9.766666
77516;PMS7003;66628;53.946;27.634;2023-02-23T01:38:02;14.400000;13.933333;9.583333
77516;PMS7003;66628;53.946;27.634;2023-02-23T01:39:04;16.466667;14.650000;10.166667
77516;PMS7003;66628;53.946;27.634;2023-02-23T01:40:02;16.100000;15.133333;10.316667
77516;PMS7003;66628;53.946;27.634;2023-02-23T01:41:02;17.666666;15.783334;9.750000
77516;PMS7003;66628;53.946;27.634;2023-02-23T01:42:02;16.666666;16.216667;10.200000
77516;PMS7003;66628;53.946;27.634;2023-02-23T01:44:57;16.650000;15.716666;10.300000
77516;PMS7003;66628;53.946;27.634;2023-02-23T01:46:02;15.433333;13.866667;9.966666
77516;PMS7003;66628;53.946;27.634;2023-02-23T01:47:02;17.450001;16.799999;10.383333
77516;PMS7003;66628;53.946;27.634;2023-02-23T01:48:12;16.983334;16.250000;10.616667
77516;PMS7003;66628;53.946;27.634;2023-02-23T01:49:02;14.600000;14.300000;9.900000
77516;PMS7003;66628;53.946;27.634;2023-02-23T01:50:02;15.800000;15.500000;10.733334
77516;PMS7003;66628;53.946;27.634;2023-02-23T01:51:06;15.033334;14.416667;9.516666
77516;PMS7003;66628;53.946;27.634;2023-02-23T01:52:07;16.733334;15.100000;10.066667
77516;PMS7003;66628;53.946;27.634;2023-02-23T01:53:03;18.150000;16.049999;10.516666
77516;PMS7003;66628;53.946;27.634;2023-02-23T01:55:02;17.266666;15.233334;10.600000
77516;PMS7003;66628;53.946;27.634;2023-02-23T01:56:07;17.683332;16.600000;10.300000
77516;PMS7003;66628;53.946;27.634;2023-02-23T01:57:04;13.700000;13.266666;9.933333
77516;PMS7003;66628;53.946;27.634;2023-02-23T01:58:10;14.100000;14.000000;9.866667
77516;PMS7003;66628;53.946;27.634;2023-02-23T01:59:05;15.516666;14.300000;10.633333
77516;PMS7003;66628;53.946;27.634;2023-02-23T02:00:02;17.783333;15.900000;9.716666
77516;PMS7003;66628;53.946;27.634;2023-02-23T02:01:02;17.400000;16.483334;10.100000
77516;PMS7003;66628;53.946;27.634;2023-02-23T02:02:02;15.500000;14.833333;9.566667
77516;PMS7003;66628;53.946;27.634;2023-02-23T02:03:06;16.483334;13.883333;9.283334
77516;PMS7003;66628;53.946;27.634;2023-02-23T02:04:03;16.933332;15.616667;9.416667
77516;PMS7003;66628;53.946;27.634;2023-02-23T02:05:03;15.900000;15.416667;10.666667
77516;PMS7003;66628;53.946;27.634;2023-02-23T02:06:03;16.016666;15.516666;9.916667
77516;PMS7003;66628;53.946;27.634;2023-02-23T02:07:03;19.100000;17.850000;10.533334
77516;PMS7003;66628;53.946;27.634;2023-02-23T02:08:02;15.416667;14.416667;9.516666
77516;PMS7003;66628;53.946;27.634;2023-02-23T02:09:09;18.950001;15.750000;9.950000
77516;PMS7003;66628;53.946;27.634;2023-02-23T02:10:03;17.150000;15.100000;9.800000
77516;PMS7003;66628;53.946;27.634;2023-02-23T02:11:02;16.733334;14.966666;10.366667
77516;PMS7003;66628;53.946;27.634;2023-02-23T02:12:02;16.700001;15.733334;10.800000
77516;PMS7003;66628;53.946;27.634;2023-02-23T02:13:02;15.533334;14.516666;9.900000
77516;PMS7003;66628;53.946;27.634;2023-02-23T02:14:08;18.116667;16.483334;10.483334
77516;PMS7003;66628;53.946;27.634;2023-02-23T02:15:04;15.283334;14.483334;9.233334
77516;PMS7003;66628;53.946;27.634;2023-02-23T02:17:15;16.299999;15.166667;10.100000
77516;PMS7003;66628;53.946;27.634;2023-02-23T02:20:30;16.716667;15.466666;9.400000
77516;PMS7003;66628;53.946;27.634;2023-02-23T02:22:15;15.700000;15.200000;9.850000
77516;PMS7003;66628;53.946;27.634;2023-02-23T02:28:22;14.983334;14.416667;9.883333
77516;PMS7003;66628;53.946;27.634;2023-02-23T02:30:17;16.299999;15.650000;9.866667
77516;PMS7003;66628;53.946;27.634;2023-02-23T02:31:53;15.233334;13.866667;9.266666
77516;PMS7003;66628;53.946;27.634;2023-02-23T02:35:14;16.383333;15.066667;9.983334
77516;PMS7003;66628;53.946;27.634;2023-02-23T02:41:14;15.016666;14.483334;9.466666
77516;PMS7003;66628;53.946;27.634;2023-02-23T02:42:15;18.933332;18.083334;10.583333
77516;PMS7003;66628;53.946;27.634;2023-02-23T02:43:11;13.933333;13.183333;9.250000
77516;PMS7003;66628;53.946;27.634;2023-02-23T02:45:14;14.333333;13.500000;8.900000
77516;PMS7003;66628;53.946;27.634;2023-02-23T02:47:08;17.533333;16.133333;10.716666
77516;PMS7003;66628;53.946;27.634;2023-02-23T02:49:14;15.433333;15.200000;10.483334
77516;PMS7003;66628;53.946;27.634;2023-02-23T02:50:13;16.983334;16.366667;9.700000
77516;PMS7003;66628;53.946;27.634;2023-02-23T02:51:26;14.666667;13.633333;9.133333
77516;PMS7003;66628;53.946;27.634;2023-02-23T02:52:10;15.816667;15.233334;9.216666
77516;PMS7003;66628;53.946;27.634;2023-02-23T02:53:07;15.200000;14.500000;9.833333
77516;PMS7003;66628;53.946;27.634;2023-02-23T02:55:08;15.466666;14.216666;9.166667
77516;PMS7003;66628;53.946;27.634;2023-02-23T02:56:03;15.850000;14.966666;9.116667
77516;PMS7003;66628;53.946;27.634;2023-02-23T02:57:03;15.600000;15.466666;10.233334
77516;PMS7003;66628;53.946;27.634;2023-02-23T02:58:05;14.766666;13.933333;9.466666
77516;PMS7003;66628;53.946;27.634;2023-02-23T02:59:02;13.450000;13.216666;8.966666
77516;PMS7003;66628;53.946;27.634;2023-02-23T03:00:03;16.100000;15.466666;10.083333
77516;PMS7003;66628;53.946;27.634;2023-02-23T03:01:07;13.966666;13.500000;8.716666
77516;PMS7003;66628;53.946;27.634;2023-02-23T03:02:04;17.250000;16.216667;9.716666
77516;PMS7003;66628;53.946;27.634;2023-02-23T03:03:02;15.266666;14.066667;9.066667
77516;PMS7003;66628;53.946;27.634;2023-02-23T03:06:02;16.450001;14.600000;10.133333
77516;PMS7003;66628;53.946;27.634;2023-02-23T03:07:15;15.450000;14.116667;9.316667
77516;PMS7003;66628;53.946;27.634;2023-02-23T03:08:13;15.500000;14.283334;9.100000
77516;PMS7003;66628;53.946;27.634;2023-02-23T03:09:16;18.933332;16.716667;9.883333
77516;PMS7003;66628;53.946;27.634;2023-02-23T03:11:09;14.650000;13.850000;9.466666
77516;PMS7003;66628;53.946;27.634;2023-02-23T03:12:09;15.333333;14.883333;9.483334
77516;PMS7003;66628;53.946;27.634;2023-02-23T03:21:11;16.900000;15.250000;9.900000
77516;PMS7003;66628;53.946;27.634;2023-02-23T03:24:16;15.933333;14.983334;10.283334
77516;PMS7003;66628;53.946;27.634;2023-02-23T03:25:11;15.566667;14.600000;9.983334
77516;PMS7003;66628;53.946;27.634;2023-02-23T03:27:53;14.550000;13.583333;9.166667
77516;PMS7003;66628;53.946;27.634;2023-02-23T03:28:09;14.616667;13.533334;9.866667
77516;PMS7003;66628;53.946;27.634;2023-02-23T03:29:08;13.366667;12.883333;9.116667
77516;PMS7003;66628;53.946;27.634;2023-02-23T03:31:13;17.066668;15.100000;10.600000
77516;PMS7003;66628;53.946;27.634;2023-02-23T03:33:09;14.566667;14.233334;9.400000
77516;PMS7003;66628;53.946;27.634;2023-02-23T03:34:09;15.916667;14.583333;10.450000
77516;PMS7003;66628;53.946;27.634;2023-02-23T03:35:12;15.583333;14.100000;8.783334
77516;PMS7003;66628;53.946;27.634;2023-02-23T03:36:08;15.683333;14.383333;9.633333
77516;PMS7003;66628;53.946;27.634;2023-02-23T03:37:19;14.183333;12.616667;8.816667
77516;PMS7003;66628;53.946;27.634;2023-02-23T03:38:53;15.466666;13.866667;9.116667
77516;PMS7003;66628;53.946;27.634;2023-02-23T03:40:07;15.050000;13.316667;9.483334
77516;PMS7003;66628;53.946;27.634;2023-02-23T03:41:04;15.783334;13.966666;8.983334
77516;PMS7003;66628;53.946;27.634;2023-02-23T03:42:07;14.950000;14.116667;9.650000
77516;PMS7003;66628;53.946;27.634;2023-02-23T03:43:08;15.350000;13.850000;9.183333
77516;PMS7003;66628;53.946;27.634;2023-02-23T03:44:07;14.500000;13.416667;8.816667
77516;PMS7003;66628;53.946;27.634;2023-02-23T03:45:09;13.900000;13.183333;9.700000
77516;PMS7003;66628;53.946;27.634;2023-02-23T03:46:03;15.983334;15.633333;10.633333
77516;PMS7003;66628;53.946;27.634;2023-02-23T03:47:03;15.666667;14.533334;10.100000
77516;PMS7003;66628;53.946;27.634;2023-02-23T03:48:04;14.300000;12.866667;8.633333
77516;PMS7003;66628;53.946;27.634;2023-02-23T03:49:04;14.500000;12.200000;8.366667
77516;PMS7003;66628;53.946;27.634;2023-02-23T03:50:05;15.950000;15.133333;8.850000
77516;PMS7003;66628;53.946;27.634;2023-02-23T03:51:05;15.283334;14.100000;9.016666
77516;PMS7003;66628;53.946;27.634;2023-02-23T03:52:13;15.250000;13.483334;8.483334
77516;PMS7003;66628;53.946;27.634;2023-02-23T03:53:03;13.633333;13.083333;8.866667
77516;PMS7003;66628;53.946;27.634;2023-02-23T03:54:11;15.100000;14.516666;9.933333
77516;PMS7003;66628;53.946;27.634;2023-02-23T03:55:06;13.500000;12.783334;8.833333
77516;PMS7003;66628;53.946;27.634;2023-02-23T03:56:03;15.733334;14.433333;9.266666
77516;PMS7003;66628;53.946;27.634;2023-02-23T03:57:04;13.583333;12.650000;9.183333
77516;PMS7003;66628;53.946;27.634;2023-02-23T03:58:05;14.250000;13.383333;8.216666
77516;PMS7003;66628;53.946;27.634;2023-02-23T03:59:05;14.866667;14.500000;10.166667
77516;PMS7003;66628;53.946;27.634;2023-02-23T04:00:05;14.283334;13.383333;9.683333
77516;PMS7003;66628;53.946;27.634;2023-02-23T04:01:03;14.116667;13.516666;9.450000
77516;PMS7003;66628;53.946;27.634;2023-02-23T04:02:03;13.900000;13.350000;8.783334
77516;PMS7003;66628;53.946;27.634;2023-02-23T04:03:04;14.600000;13.616667;9.633333
77516;PMS7003;66628;53.946;27.634;2023-02-23T04:04:03;14.500000;13.066667;8.650000
77516;PMS7003;66628;53.946;27.634;2023-02-23T04:05:08;12.366667;12.033334;8.383333
77516;PMS7003;66628;53.946;27.634;2023-02-23T04:06:03;14.200000;13.733334;9.283334
77516;PMS7003;66628;53.946;27.634;2023-02-23T04:07:02;15.033334;14.600000;10.016666
77516;PMS7003;66628;53.946;27.634;2023-02-23T04:08:04;12.750000;12.183333;8.616667
77516;PMS7003;66628;53.946;27.634;2023-02-23T04:09:05;16.150000;15.450000;10.683333
77516;PMS7003;66628;53.946;27.634;2023-02-23T04:10:03;14.250000;13.333333;9.283334
77516;PMS7003;66628;53.946;27.634;2023-02-23T04:13:07;13.816667;12.466666;9.133333
77516;PMS7003;66628;53.946;27.634;2023-02-23T04:14:05;13.466666;13.316667;8.266666
77516;PMS7003;66628;53.946;27.634;2023-02-23T04:16:07;14.666667;13.600000;9.900000
77516;PMS7003;66628;53.946;27.634;2023-02-23T04:17:03;15.366667;13.800000;8.933333
77516;PMS7003;66628;53.946;27.634;2023-02-23T04:18:06;15.316667;13.066667;8.650000
77516;PMS7003;66628;53.946;27.634;2023-02-23T04:19:02;16.133333;15.200000;10.466666
77516;PMS7003;66628;53.946;27.634;2023-02-23T04:20:03;15.316667;13.883333;9.633333
77516;PMS7003;66628;53.946;27.634;2023-02-23T04:21:03;13.683333;13.083333;9.383333
77516;PMS7003;66628;53.946;27.634;2023-02-23T04:22:03;16.233334;15.066667;9.150000
77516;PMS7003;66628;53.946;27.634;2023-02-23T04:23:02;15.766666;14.516666;9.050000
77516;PMS7003;66628;53.946;27.634;2023-02-23T04:24:02;14.316667;13.083333;9.350000
77516;PMS7003;66628;53.946;27.634;2023-02-23T04:25:02;15.650000;14.583333;9.633333
77516;PMS7003;66628;53.946;27.634;2023-02-23T04:26:02;13.033334;12.666667;8.800000
77516;PMS7003;66628;53.946;27.634;2023-02-23T04:27:02;14.300000;13.816667;8.850000
77516;PMS7003;66628;53.946;27.634;2023-02-23T04:28:02;14.266666;13.450000;9.283334
77516;PMS7003;66628;53.946;27.634;2023-02-23T04:29:02;15.366667;13.916667;9.516666
77516;PMS7003;66628;53.946;27.634;2023-02-23T04:30:02;14.750000;14.016666;9.533334
77516;PMS7003;66628;53.946;27.634;2023-02-23T04:31:02;15.166667;14.566667;9.233334
77516;PMS7003;66628;53.946;27.634;2023-02-23T04:32:02;13.266666;12.600000;8.483334
77516;PMS7003;66628;53.946;27.634;2023-02-23T04:33:03;13.833333;13.066667;8.483334
77516;PMS7003;66628;53.946;27.634;2023-02-23T04:34:02;16.516666;15.550000;10.383333
77516;PMS7003;66628;53.946;27.634;2023-02-23T04:35:03;15.116667;13.916667;9.316667
77516;PMS7003;66628;53.946;27.634;2023-02-23T04:36:02;16.533333;14.733334;9.200000
77516;PMS7003;66628;53.946;27.634;2023-02-23T04:37:02;15.283334;14.783334;10.500000
77516;PMS7003;66628;53.946;27.634;2023-02-23T04:38:02;14.833333;14.633333;9.533334
77516;PMS7003;66628;53.946;27.634;2023-02-23T04:39:02;14.750000;14.183333;9.616667
77516;PMS7003;66628;53.946;27.634;2023-02-23T04:40:02;15.166667;14.416667;9.433333
77516;PMS7003;66628;53.946;27.634;2023-02-23T04:41:02;12.200000;12.083333;8.516666
77516;PMS7003;66628;53.946;27.634;2023-02-23T04:42:02;14.066667;13.550000;7.916667
77516;PMS7003;66628;53.946;27.634;2023-02-23T04:43:02;15.966666;14.266666;10.316667
77516;PMS7003;66628;53.946;27.634;2023-02-23T04:44:02;15.066667;14.266666;8.283334
77516;PMS7003;66628;53.946;27.634;2023-02-23T04:45:02;14.700000;13.333333;9.466666
77516;PMS7003;66628;53.946;27.634;2023-02-23T04:46:02;15.400000;14.500000;9.200000
77516;PMS7003;66628;53.946;27.634;2023-02-23T04:47:02;15.116667;14.416667;10.083333
77516;PMS7003;66628;53.946;27.634;2023-02-23T04:48:02;15.083333;14.050000;9.883333
77516;PMS7003;66628;53.946;27.634;2023-02-23T04:49:02;15.200000;14.683333;9.950000
77516;PMS7003;66628;53.946;27.634;2023-02-23T04:50:03;15.383333;15.333333;9.250000
77516;PMS7003;66628;53.946;27.634;2023-02-23T04:51:02;15.933333;14.400000;9.766666
77516;PMS7003;66628;53.946;27.634;2023-02-23T04:52:02;13.850000;13.633333;8.600000
77516;PMS7003;66628;53.946;27.634;2023-02-23T04:53:02;13.916667;13.550000;9.300000
77516;PMS7003;66628;53.946;27.634;2023-02-23T04:54:03;13.666667;13.266666;8.333333
77516;PMS7003;66628;53.946;27.634;2023-02-23T04:55:03;14.400000;11.866667;8.466666
77516;PMS7003;66628;53.946;27.634;2023-02-23T04:56:02;13.466666;13.166667;9.216666
77516;PMS7003;66628;53.946;27.634;2023-02-23T04:57:02;13.233334;13.066667;8.366667
77516;PMS7003;66628;53.946;27.634;2023-02-23T04:58:02;12.616667;11.350000;7.716667
77516;PMS7003;66628;53.946;27.634;2023-02-23T04:59:02;13.933333;12.666667;8.683333
77516;PMS7003;66628;53.946;27.634;2023-02-23T05:00:05;14.983334;13.916667;9.683333
77516;PMS7003;66628;53.946;27.634;2023-02-23T05:01:06;14.883333;13.816667;9.050000
77516;PMS7003;66628;53.946;27.634;2023-02-23T05:02:02;14.733334;14.200000;9.516666
77516;PMS7003;66628;53.946;27.634;2023-02-23T05:03:02;15.983334;14.150000;9.700000
77516;PMS7003;66628;53.946;27.634;2023-02-23T05:04:02;13.433333;13.300000;9.366667
77516;PMS7003;66628;53.946;27.634;2023-02-23T05:05:02;14.650000;13.950000;9.716666
77516;PMS7003;66628;53.946;27.634;2023-02-23T05:06:02;14.633333;13.983334;8.900000
77516;PMS7003;66628;53.946;27.634;2023-02-23T05:07:02;14.283334;13.716666;8.783334
77516;PMS7003;66628;53.946;27.634;2023-02-23T05:08:02;16.299999;15.583333;9.733334
77516;PMS7003;66628;53.946;27.634;2023-02-23T05:09:02;16.116667;14.866667;9.433333
77516;PMS7003;66628;53.946;27.634;2023-02-23T05:10:05;15.766666;13.733334;9.316667
77516;PMS7003;66628;53.946;27.634;2023-02-23T05:11:02;15.916667;15.050000;9.416667
77516;PMS7003;66628;53.946;27.634;2023-02-23T05:12:02;14.800000;13.366667;9.033334
77516;PMS7003;66628;53.946;27.634;2023-02-23T05:13:02;14.650000;13.833333;9.566667
77516;PMS7003;66628;53.946;27.634;2023-02-23T05:14:02;14.700000;13.833333;9.400000
77516;PMS7003;66628;53.946;27.634;2023-02-23T05:15:02;15.500000;13.800000;9.266666
77516;PMS7003;66628;53.946;27.634;2023-02-23T05:16:02;14.516666;14.166667;9.866667
77516;PMS7003;66628;53.946;27.634;2023-02-23T05:17:02;14.950000;14.383333;9.833333
77516;PMS7003;66628;53.946;27.634;2023-02-23T05:18:02;15.883333;15.366667;10.316667
77516;PMS7003;66628;53.946;27.634;2023-02-23T05:19:02;17.200001;14.950000;10.433333
77516;PMS7003;66628;53.946;27.634;2023-02-23T05:20:02;16.433332;15.800000;9.883333
77516;PMS7003;66628;53.946;27.634;2023-02-23T05:21:06;15.366667;14.816667;9.200000
77516;PMS7003;66628;53.946;27.634;2023-02-23T05:22:02;18.783333;17.383333;11.050000
77516;PMS7003;66628;53.946;27.634;2023-02-23T05:23:02;15.883333;15.383333;9.700000
77516;PMS7003;66628;53.946;27.634;2023-02-23T05:24:02;16.166666;15.083333;10.016666
77516;PMS7003;66628;53.946;27.634;2023-02-23T05:25:02;13.966666;13.966666;10.316667
77516;PMS7003;66628;53.946;27.634;2023-02-23T05:26:08;16.766666;16.600000;10.266666
77516;PMS7003;66628;53.946;27.634;2023-02-23T05:27:02;16.083334;15.400000;10.616667
77516;PMS7003;66628;53.946;27.634;2023-02-23T05:28:02;17.700001;16.350000;10.650000
77516;PMS7003;66628;53.946;27.634;2023-02-23T05:29:02;17.516666;15.516666;10.200000
77516;PMS7003;66628;53.946;27.634;2023-02-23T05:30:03;16.900000;14.383333;9.950000